Time,TemperatureF,DewpointF,PressureIn,WindDirection,WindDirectionDegrees,WindSpeedMPH,WindSpeedGustMPH,Humidity,HourlyPrecipIn,Conditions,Clouds,dailyrainin,SolarRadiationWatts/m^2,SoftwareType,DateUTC
2013-01-08 00:03:00,19.2,17.5,30.02,SW,214,0.0,0.0,93,0.00,CLR,OVC,0.00,0.0,WeatherDisplay:10.37,2013-01-08 06:03:00,
2013-01-08 00:08:00,19.0,17.1,30.02,SSW,203,0.0,0.0,92,0.00,CLR,OVC,0.00,0.0,WeatherDisplay:10.37,2013-01-08 06:08:00,
2013-01-08 00:13:00,18.5,16.6,30.02,SSW,203,0.0,0.0,92,0.00,CLR,OVC,0.00,0.0,WeatherDisplay:10.37,2013-01-08 06:13:00,
2013-01-08 00:18:00,18.0,16.0,30.02,SSW,203,0.0,0.0,92,0.00,CLR,OVC,0.00,0.0,WeatherDisplay:10.37,2013-01-08 06:18:00,
2013-01-08 00:23:00,17.6,15.9,30.02,SSW,203,0.0,0.0,93,0.00,CLR,OVC,0.00,0.0,WeatherDisplay:10.37,2013-01-08 06:23:00,
2013-01-08 00:28:00,17.6,16.2,30.02,SSW,203,0.0,0.0,94,0.00,CLR,OVC,0.00,0.0,WeatherDisplay:10.37,2013-01-08 06:28:00,
2013-01-08 00:33:00,17.4,16.0,30.02,SSW,203,0.0,0.0,94,0.00,CLR,OVC,0.00,0.0,WeatherDisplay:10.37,2013-01-08 06:33:00,
2013-01-08 00:38:00,17.1,15.4,30.02,SSW,203,0.0,0.0,93,0.00,CLR,OVC,0.00,0.0,WeatherDisplay:10.37,2013-01-08 06:38:00,
2013-01-08 00:43:00,16.7,15.0,30.02,SSW,203,0.0,0.0,93,0.00,CLR,OVC,0.00,0.0,WeatherDisplay:10.37,2013-01-08 06:43:00,
2013-01-08 00:48:00,16.3,14.7,30.02,SSW,203,0.0,0.0,93,0.00,CLR,OVC,0.00,0.0,WeatherDisplay:10.37,2013-01-08 06:48:00,
2013-01-08 00:53:00,16.2,14.7,30.02,SSW,203,0.0,0.0,94,0.00,CLR,OVC,0.00,0.0,WeatherDisplay:10.37,2013-01-08 06:53:00,
2013-01-08 00:58:00,16.2,14.7,30.02,SSW,203,0.0,0.0,94,0.00,CLR,OVC,0.00,0.0,WeatherDisplay:10.37,2013-01-08 06:58:00,
2013-01-08 01:03:00,16.0,14.6,30.02,SSW,203,0.0,0.0,94,0.00,SCT,OVC,0.00,0.0,WeatherDisplay:10.37,2013-01-08 07:03:00,
2013-01-08 01:08:00,15.8,14.6,30.05,SSW,203,0.0,0.0,95,0.00,SCT,OVC,0.00,0.0,WeatherDisplay:10.37,2013-01-08 07:08:00,
2013-01-08 01:13:00,15.6,14.4,30.05,SSW,203,0.0,0.0,95,0.00,SCT,OVC,0.00,0.0,WeatherDisplay:10.37,2013-01-08 07:13:00,
2013-01-08 01:18:00,15.6,14.4,30.05,SSW,203,0.0,0.0,95,0.00,SCT,OVC,0.00,0.0,WeatherDisplay:10.37,2013-01-08 07:18:00,
2013-01-08 01:23:00,15.4,14.5,30.05,SSW,203,0.0,0.0,96,0.00,FEW,OVC,0.00,0.0,WeatherDisplay:10.37,2013-01-08 07:23:00,
2013-01-08 01:28:00,15.6,14.7,30.05,SSW,203,0.0,0.0,96,0.00,FEW,OVC,0.00,0.0,WeatherDisplay:10.37,2013-01-08 07:28:00,
2013-01-08 01:33:00,15.8,15.1,30.05,SSW,203,0.0,0.0,97,0.00,FEW,OVC,0.00,0.0,WeatherDisplay:10.37,2013-01-08 07:33:00,
2013-01-08 01:38:00,15.8,15.1,30.05,SSW,203,0.0,0.0,97,0.00,FEW,OVC,0.00,0.0,WeatherDisplay:10.37,2013-01-08 07:38:00,
2013-01-08 01:43:00,15.6,14.9,30.05,SSW,203,0.0,0.0,97,0.00,CLR,OVC,0.00,0.0,WeatherDisplay:10.37,2013-01-08 07:43:00,
2013-01-08 01:48:00,15.4,14.5,30.05,SSW,203,0.0,0.0,96,0.00,CLR,OVC,0.00,0.0,WeatherDisplay:10.37,2013-01-08 07:48:00,
2013-01-08 01:53:00,15.1,14.1,30.05,SSW,203,0.0,0.0,96,0.00,CLR,OVC,0.00,0.0,WeatherDisplay:10.37,2013-01-08 07:53:00,
2013-01-08 01:58:00,15.1,14.4,30.05,SSW,203,0.0,0.0,97,0.00,CLR,OVC,0.00,0.0,WeatherDisplay:10.37,2013-01-08 07:58:00,
2013-01-08 02:03:00,15.1,14.4,30.05,SSW,203,0.0,0.0,97,0.00,SCT,OVC,0.00,0.0,WeatherDisplay:10.37,2013-01-08 08:03:00,
2013-01-08 02:08:00,15.6,15.2,30.05,SSW,203,0.0,0.0,98,0.00,SCT,OVC,0.00,0.0,WeatherDisplay:10.37,2013-01-08 08:08:00,
2013-01-08 02:13:00,15.8,15.3,30.05,SSW,203,0.0,0.0,98,0.00,SCT,OVC,0.00,0.0,WeatherDisplay:10.37,2013-01-08 08:13:00,
2013-01-08 02:18:00,15.4,14.7,30.05,SSW,203,0.0,0.0,97,0.00,SCT,OVC,0.00,0.0,WeatherDisplay:10.37,2013-01-08 08:18:00,
2013-01-08 02:23:00,15.3,14.6,30.05,SSW,203,0.0,0.0,97,0.00,SCT,OVC,0.00,0.0,WeatherDisplay:10.37,2013-01-08 08:23:00,
2013-01-08 02:28:00,15.1,14.4,30.05,SSW,203,0.0,0.0,97,0.00,SCT,OVC,0.00,0.0,WeatherDisplay:10.37,2013-01-08 08:28:00,
2013-01-08 02:33:00,14.9,14.2,30.05,SSW,203,0.0,0.0,97,0.00,SCT,OVC,0.00,0.0,WeatherDisplay:10.37,2013-01-08 08:33:00,
2013-01-08 02:38:00,14.7,14.0,30.05,SSW,203,0.0,0.0,97,0.00,SCT,OVC,0.00,0.0,WeatherDisplay:10.37,2013-01-08 08:38:00,
2013-01-08 02:43:00,14.5,13.8,30.05,SSW,203,0.0,0.0,97,0.00,SCT,OVC,0.00,0.0,WeatherDisplay:10.37,2013-01-08 08:43:00,
2013-01-08 02:48:00,14.5,13.8,30.05,SSW,203,0.0,0.0,97,0.00,SCT,OVC,0.00,0.0,WeatherDisplay:10.37,2013-01-08 08:48:00,
2013-01-08 02:53:00,14.4,13.7,30.05,SSW,203,0.0,0.0,97,0.00,SCT,OVC,0.00,0.0,WeatherDisplay:10.37,2013-01-08 08:53:00,
2013-01-08 02:58:00,14.2,13.5,30.05,SSW,203,0.0,0.0,97,0.00,SCT,OVC,0.00,0.0,WeatherDisplay:10.37,2013-01-08 08:58:00,
2013-01-08 03:03:00,14.2,13.5,30.05,SSW,203,0.0,0.0,97,0.00,FEW,OVC,0.00,0.0,WeatherDisplay:10.37,2013-01-08 09:03:00,
2013-01-08 03:08:00,14.2,13.5,30.05,SSW,203,0.0,0.0,97,0.00,FEW,OVC,0.00,0.0,WeatherDisplay:10.37,2013-01-08 09:08:00,
2013-01-08 03:13:00,14.2,13.5,30.05,SSW,203,0.0,0.0,97,0.00,FEW,OVC,0.00,0.0,WeatherDisplay:10.37,2013-01-08 09:13:00,
2013-01-08 03:18:00,14.2,13.5,30.05,SSW,203,0.0,0.0,97,0.00,FEW,OVC,0.00,0.0,WeatherDisplay:10.37,2013-01-08 09:18:00,
2013-01-08 03:23:00,14.0,13.5,30.05,SSW,203,0.0,0.0,98,0.00,FEW,OVC,0.00,0.0,WeatherDisplay:10.37,2013-01-08 09:23:00,
2013-01-08 03:28:00,13.8,13.1,30.05,SSW,203,0.0,0.0,97,0.00,FEW,OVC,0.00,0.0,WeatherDisplay:10.37,2013-01-08 09:28:00,
2013-01-08 03:33:00,13.6,12.9,30.05,SSW,203,0.0,0.0,97,0.00,FEW,OVC,0.00,0.0,WeatherDisplay:10.37,2013-01-08 09:33:00,
2013-01-08 03:38:00,13.6,12.9,30.05,SSW,203,0.0,0.0,97,0.00,FEW,OVC,0.00,0.0,WeatherDisplay:10.37,2013-01-08 09:38:00,
2013-01-08 03:43:00,13.5,12.8,30.05,SSW,203,0.0,0.0,97,0.00,CLR,OVC,0.00,0.0,WeatherDisplay:10.37,2013-01-08 09:43:00,
2013-01-08 03:48:00,13.5,12.8,30.05,SSW,203,0.0,0.0,97,0.00,CLR,OVC,0.00,0.0,WeatherDisplay:10.37,2013-01-08 09:48:00,
2013-01-08 03:53:00,13.3,12.6,30.05,SSW,203,0.0,0.0,97,0.00,CLR,OVC,0.00,0.0,WeatherDisplay:10.37,2013-01-08 09:53:00,
2013-01-08 03:58:00,13.3,12.6,30.05,SSW,203,0.0,0.0,97,0.00,CLR,OVC,0.00,0.0,WeatherDisplay:10.37,2013-01-08 09:58:00,
2013-01-08 04:02:00,13.1,12.4,30.05,SSW,203,0.0,0.0,97,0.00,CLR,OVC,0.00,0.0,WeatherDisplay:10.37,2013-01-08 10:02:00,
2013-01-08 04:08:00,13.1,12.4,30.05,SSW,203,0.0,0.0,97,0.00,CLR,OVC,0.00,0.0,WeatherDisplay:10.37,2013-01-08 10:08:00,
2013-01-08 04:13:00,13.1,12.4,30.05,SSW,203,0.0,0.0,97,0.00,CLR,OVC,0.00,0.0,WeatherDisplay:10.37,2013-01-08 10:13:00,
2013-01-08 04:18:00,12.9,12.2,30.05,SSW,203,0.0,0.0,97,0.00,CLR,OVC,0.00,0.0,WeatherDisplay:10.37,2013-01-08 10:18:00,
2013-01-08 04:23:00,12.9,12.2,30.05,SSW,203,0.0,0.0,97,0.00,CLR,OVC,0.00,0.0,WeatherDisplay:10.37,2013-01-08 10:23:00,
2013-01-08 04:27:00,12.7,12.1,30.05,SSW,203,0.0,0.0,97,0.00,CLR,OVC,0.00,0.0,WeatherDisplay:10.37,2013-01-08 10:27:00,
2013-01-08 04:32:00,12.7,12.1,30.05,SSW,203,0.0,0.0,97,0.00,CLR,OVC,0.00,0.0,WeatherDisplay:10.37,2013-01-08 10:32:00,
2013-01-08 04:37:00,12.6,11.9,30.05,SSW,203,0.0,0.0,97,0.00,CLR,OVC,0.00,0.0,WeatherDisplay:10.37,2013-01-08 10:37:00,
2013-01-08 04:42:00,12.6,11.9,30.05,SSW,203,0.0,0.0,97,0.00,CLR,OVC,0.00,0.0,WeatherDisplay:10.37,2013-01-08 10:42:00,
2013-01-08 04:47:00,12.6,11.9,30.05,SSW,203,0.0,0.0,97,0.00,CLR,OVC,0.00,0.0,WeatherDisplay:10.37,2013-01-08 10:47:00,
2013-01-08 04:52:00,12.4,11.7,30.05,SSW,203,0.0,0.0,97,0.00,CLR,OVC,0.00,0.0,WeatherDisplay:10.37,2013-01-08 10:52:00,
2013-01-08 04:57:00,12.2,11.5,30.05,SSW,203,0.0,0.0,97,0.00,CLR,OVC,0.00,0.0,WeatherDisplay:10.37,2013-01-08 10:57:00,
2013-01-08 05:02:00,12.0,11.3,30.05,SSW,203,0.0,0.0,97,0.00,CLR,OVC,0.00,0.0,WeatherDisplay:10.37,2013-01-08 11:02:00,
2013-01-08 05:07:00,11.8,11.2,30.05,SSW,203,0.0,0.0,97,0.00,CLR,OVC,0.00,0.0,WeatherDisplay:10.37,2013-01-08 11:07:00,
2013-01-08 05:12:00,11.7,11.0,30.05,SSW,203,0.0,0.0,97,0.00,CLR,OVC,0.00,0.0,WeatherDisplay:10.37,2013-01-08 11:12:00,
2013-01-08 05:17:00,11.3,10.6,30.05,SSW,203,0.0,0.0,97,0.00,CLR,OVC,0.00,0.0,WeatherDisplay:10.37,2013-01-08 11:17:00,
2013-01-08 05:22:00,11.3,10.6,30.05,SSW,203,0.0,0.0,97,0.00,CLR,OVC,0.00,0.0,WeatherDisplay:10.37,2013-01-08 11:22:00,
2013-01-08 05:27:00,11.3,10.6,30.05,SSW,203,0.0,0.0,97,0.00,CLR,OVC,0.00,0.0,WeatherDisplay:10.37,2013-01-08 11:27:00,
2013-01-08 05:32:00,11.5,10.8,30.05,SSW,203,0.0,0.0,97,0.00,CLR,OVC,0.00,0.0,WeatherDisplay:10.37,2013-01-08 11:32:00,
2013-01-08 05:37:00,11.3,10.6,30.05,SSW,203,0.0,0.0,97,0.00,CLR,OVC,0.00,0.0,WeatherDisplay:10.37,2013-01-08 11:37:00,
2013-01-08 05:42:00,11.1,10.4,30.05,SSW,203,0.0,0.0,97,0.00,CLR,OVC,0.00,0.0,WeatherDisplay:10.37,2013-01-08 11:42:00,
2013-01-08 05:47:00,10.9,10.3,30.05,SSW,203,0.0,0.0,97,0.00,CLR,OVC,0.00,0.0,WeatherDisplay:10.37,2013-01-08 11:47:00,
2013-01-08 05:52:00,10.9,10.3,30.05,SSW,203,0.0,0.0,97,0.00,CLR,OVC,0.00,0.0,WeatherDisplay:10.37,2013-01-08 11:52:00,
2013-01-08 05:57:00,10.9,10.3,30.05,SSW,203,0.0,0.0,97,0.00,CLR,OVC,0.00,0.0,WeatherDisplay:10.37,2013-01-08 11:57:00,
2013-01-08 06:02:00,10.8,10.1,30.05,SSW,203,0.0,0.0,97,0.00,CLR,OVC,0.00,0.0,WeatherDisplay:10.37,2013-01-08 12:02:00,
2013-01-08 06:07:00,10.6,9.9,30.05,SSW,203,0.0,0.0,97,0.00,CLR,OVC,0.00,0.0,WeatherDisplay:10.37,2013-01-08 12:07:00,
2013-01-08 06:12:00,10.6,9.9,30.05,SSW,203,0.0,0.0,97,0.00,CLR,OVC,0.00,0.0,WeatherDisplay:10.37,2013-01-08 12:12:00,
2013-01-08 06:17:00,10.8,10.1,30.05,SSW,203,0.0,0.0,97,0.00,CLR,OVC,0.00,0.0,WeatherDisplay:10.37,2013-01-08 12:17:00,
2013-01-08 06:22:00,10.8,10.1,30.08,SSW,203,0.0,0.0,97,0.00,CLR,OVC,0.00,0.0,WeatherDisplay:10.37,2013-01-08 12:22:00,
2013-01-08 06:27:00,10.6,9.9,30.08,SSW,203,0.0,0.0,97,0.00,CLR,OVC,0.00,0.0,WeatherDisplay:10.37,2013-01-08 12:27:00,
2013-01-08 06:32:00,10.4,9.7,30.08,SSW,203,0.0,0.0,97,0.00,CLR,OVC,0.00,0.0,WeatherDisplay:10.37,2013-01-08 12:32:00,
2013-01-08 06:37:00,10.4,9.7,30.08,SSW,203,0.0,0.0,97,0.00,CLR,OVC,0.00,0.0,WeatherDisplay:10.37,2013-01-08 12:37:00,
2013-01-08 06:42:00,10.4,9.7,30.08,SSW,203,0.0,0.0,97,0.00,CLR,OVC,0.00,0.0,WeatherDisplay:10.37,2013-01-08 12:42:00,
2013-01-08 06:47:00,10.4,9.7,30.08,SSW,203,0.0,0.0,97,0.00,CLR,OVC,0.00,0.0,WeatherDisplay:10.37,2013-01-08 12:47:00,
2013-01-08 06:52:00,10.4,9.7,30.08,SSW,203,0.0,0.0,97,0.00,CLR,OVC,0.00,0.0,WeatherDisplay:10.37,2013-01-08 12:52:00,
2013-01-08 06:57:00,10.4,9.7,30.08,SSW,203,0.0,0.0,97,0.00,CLR,OVC,0.00,0.0,WeatherDisplay:10.37,2013-01-08 12:57:00,
2013-01-08 07:02:00,10.4,9.7,30.08,SSW,203,0.0,0.0,97,0.00,CLR,OVC,0.00,0.0,WeatherDisplay:10.37,2013-01-08 13:02:00,
2013-01-08 07:07:00,10.4,9.7,30.08,SSW,203,0.0,0.0,97,0.00,CLR,OVC,0.00,0.0,WeatherDisplay:10.37,2013-01-08 13:07:00,
2013-01-08 07:12:00,10.2,9.5,30.08,SSW,203,0.0,0.0,97,0.00,CLR,OVC,0.00,0.0,WeatherDisplay:10.37,2013-01-08 13:12:00,
2013-01-08 07:17:00,10.0,9.4,30.08,SSW,203,0.0,0.0,97,0.00,CLR,OVC,0.00,0.0,WeatherDisplay:10.37,2013-01-08 13:17:00,
2013-01-08 07:22:00,9.9,9.2,30.08,SSW,203,0.0,0.0,97,0.00,CLR,OVC,0.00,0.0,WeatherDisplay:10.37,2013-01-08 13:22:00,
2013-01-08 07:27:00,10.0,9.4,30.08,SSW,203,0.0,0.0,97,0.00,CLR,OVC,0.00,0.0,WeatherDisplay:10.37,2013-01-08 13:27:00,
2013-01-08 07:32:00,9.9,9.2,30.08,SSW,203,0.0,0.0,97,0.00,CLR,OVC,0.00,0.0,WeatherDisplay:10.37,2013-01-08 13:32:00,
2013-01-08 07:37:00,9.7,9.0,30.08,SSW,203,0.0,0.0,97,0.00,CLR,OVC,0.00,0.0,WeatherDisplay:10.37,2013-01-08 13:37:00,
2013-01-08 07:42:00,9.7,9.0,30.08,SSW,203,0.0,0.0,97,0.00,CLR,OVC,0.00,1.0,WeatherDisplay:10.37,2013-01-08 13:42:00,
2013-01-08 07:47:00,9.7,9.0,30.08,SSW,203,0.0,0.0,97,0.00,CLR,OVC,0.00,2.1,WeatherDisplay:10.37,2013-01-08 13:47:00,
2013-01-08 07:52:00,10.0,9.4,30.08,SSW,203,0.0,0.0,97,0.00,CLR,OVC,0.00,3.3,WeatherDisplay:10.37,2013-01-08 13:52:00,
2013-01-08 07:57:00,10.2,9.5,30.08,SSW,203,0.0,0.0,97,0.00,CLR,OVC,0.00,4.1,WeatherDisplay:10.37,2013-01-08 13:57:00,
2013-01-08 08:02:00,10.6,9.9,30.08,SSW,203,0.0,0.0,97,0.00,CLR,OVC,0.00,5.2,WeatherDisplay:10.37,2013-01-08 14:02:00,
2013-01-08 08:07:00,10.9,10.3,30.08,SSW,203,0.0,0.0,97,0.00,CLR,OVC,0.00,6.3,WeatherDisplay:10.37,2013-01-08 14:07:00,
2013-01-08 08:12:00,11.1,10.4,30.08,SSW,203,0.0,0.0,97,0.00,CLR,OVC,0.00,7.5,WeatherDisplay:10.37,2013-01-08 14:12:00,
2013-01-08 08:17:00,11.1,10.4,30.08,SSW,203,0.0,0.0,97,0.00,CLR,OVC,0.00,8.6,WeatherDisplay:10.37,2013-01-08 14:17:00,
2013-01-08 08:22:00,11.3,10.6,30.08,SSW,203,0.0,0.0,97,0.00,CLR,OVC,0.00,9.5,WeatherDisplay:10.37,2013-01-08 14:22:00,
2013-01-08 08:27:00,11.8,11.2,30.08,SSW,203,0.0,0.0,97,0.00,CLR,OVC,0.00,10.5,WeatherDisplay:10.37,2013-01-08 14:27:00,
2013-01-08 08:32:00,12.2,11.5,30.08,SSW,203,0.0,0.0,97,0.00,CLR,OVC,0.00,11.4,WeatherDisplay:10.37,2013-01-08 14:32:00,
2013-01-08 08:37:00,12.7,12.1,30.08,SSW,203,0.0,0.0,97,0.00,CLR,OVC,0.00,12.2,WeatherDisplay:10.37,2013-01-08 14:37:00,
2013-01-08 08:42:00,13.3,12.6,30.08,SSW,203,0.0,0.0,97,0.00,CLR,OVC,0.00,12.9,WeatherDisplay:10.37,2013-01-08 14:42:00,
2013-01-08 08:47:00,13.6,12.9,30.08,SSW,203,0.0,0.0,97,0.00,CLR,OVC,0.00,13.7,WeatherDisplay:10.37,2013-01-08 14:47:00,
2013-01-08 08:52:00,14.0,13.8,30.08,SSW,203,0.0,0.0,99,0.00,CLR,OVC,0.00,14.4,WeatherDisplay:10.37,2013-01-08 14:52:00,
2013-01-08 08:57:00,14.5,14.3,30.08,SSW,203,0.0,0.0,99,0.00,CLR,OVC,0.00,15.1,WeatherDisplay:10.37,2013-01-08 14:57:00,
2013-01-08 09:02:00,14.7,14.5,30.08,SSW,203,0.0,0.0,99,0.00,CLR,OVC,0.00,15.7,WeatherDisplay:10.37,2013-01-08 15:02:00,
2013-01-08 09:07:00,14.9,14.7,30.08,SSW,203,0.0,0.0,99,0.00,CLR,OVC,0.00,16.5,WeatherDisplay:10.37,2013-01-08 15:07:00,
2013-01-08 09:12:00,15.3,15.0,30.08,SSW,203,0.0,0.0,99,0.00,CLR,OVC,0.00,17.1,WeatherDisplay:10.37,2013-01-08 15:12:00,
2013-01-08 09:17:00,15.6,15.4,30.08,SSW,203,0.0,0.0,99,0.00,CLR,OVC,0.00,17.8,WeatherDisplay:10.37,2013-01-08 15:17:00,
2013-01-08 09:22:00,16.3,16.3,30.08,SSW,203,0.0,0.0,100,0.00,CLR,OVC,0.00,18.0,WeatherDisplay:10.37,2013-01-08 15:22:00,
2013-01-08 09:27:00,17.1,17.1,30.08,SSW,203,0.0,0.0,100,0.00,CLR,OVC,0.00,17.7,WeatherDisplay:10.37,2013-01-08 15:27:00,
2013-01-08 09:32:00,17.6,17.6,30.08,SSW,203,0.0,0.0,100,0.00,CLR,OVC,0.00,17.8,WeatherDisplay:10.37,2013-01-08 15:32:00,
2013-01-08 09:37:00,18.3,18.3,30.08,SSW,203,0.0,0.0,100,0.00,CLR,OVC,0.00,17.6,WeatherDisplay:10.37,2013-01-08 15:37:00,
2013-01-08 09:42:00,19.0,19.0,30.08,SSW,203,0.0,0.0,100,0.00,CLR,OVC,0.00,17.4,WeatherDisplay:10.37,2013-01-08 15:42:00,
2013-01-08 09:47:00,20.3,20.3,30.08,SSW,203,0.0,0.0,100,0.00,CLR,OVC,0.00,16.3,WeatherDisplay:10.37,2013-01-08 15:47:00,
2013-01-08 09:52:00,21.2,21.2,30.05,SSW,203,0.0,0.0,100,0.00,CLR,OVC,0.00,15.8,WeatherDisplay:10.37,2013-01-08 15:52:00,
2013-01-08 09:57:00,21.9,21.9,30.05,SSW,203,0.0,0.0,100,0.00,CLR,OVC,0.00,15.0,WeatherDisplay:10.37,2013-01-08 15:57:00,
2013-01-08 10:02:00,22.5,22.5,30.05,SSW,203,0.0,0.0,100,0.00,CLR,OVC,0.00,14.6,WeatherDisplay:10.37,2013-01-08 16:02:00,
2013-01-08 10:07:00,23.2,23.2,30.05,SSW,203,0.0,0.0,100,0.00,CLR,OVC,0.00,14.0,WeatherDisplay:10.37,2013-01-08 16:07:00,
2013-01-08 10:12:00,24.1,24.1,30.05,SSW,203,0.0,0.0,100,0.00,CLR,OVC,0.00,13.2,WeatherDisplay:10.37,2013-01-08 16:12:00,
2013-01-08 10:17:00,24.4,24.4,30.05,SSW,203,0.0,0.0,100,0.00,CLR,OVC,0.00,12.6,WeatherDisplay:10.37,2013-01-08 16:17:00,
2013-01-08 10:22:00,24.8,24.8,30.05,SSW,203,0.0,0.0,100,0.00,CLR,OVC,0.00,12.3,WeatherDisplay:10.37,2013-01-08 16:22:00,
2013-01-08 10:27:00,25.5,25.5,30.05,SE,126,0.0,0.0,100,0.00,CLR,OVC,0.00,11.3,WeatherDisplay:10.37,2013-01-08 16:27:00,
2013-01-08 10:32:00,26.1,26.1,30.05,East,90,0.0,0.0,100,0.00,CLR,OVC,0.00,10.6,WeatherDisplay:10.37,2013-01-08 16:32:00,
2013-01-08 10:37:00,27.1,27.1,30.05,East,91,0.0,0.0,100,0.00,CLR,OVC,0.00,8.9,WeatherDisplay:10.37,2013-01-08 16:37:00,
2013-01-08 10:42:00,27.7,27.7,30.05,NE,50,2.3,0.0,100,0.00,CLR,OVC,0.00,8.0,WeatherDisplay:10.37,2013-01-08 16:42:00,
2013-01-08 10:47:00,27.9,27.9,30.05,ENE,62,0.0,0.0,100,0.00,CLR,OVC,0.00,7.8,WeatherDisplay:10.37,2013-01-08 16:47:00,
2013-01-08 10:52:00,27.9,27.9,30.05,NE,51,0.0,0.0,100,0.00,CLR,OVC,0.00,8.0,WeatherDisplay:10.37,2013-01-08 16:52:00,
2013-01-08 10:57:00,28.0,28.0,30.05,NE,51,0.0,0.0,100,0.00,CLR,OVC,0.00,7.8,WeatherDisplay:10.37,2013-01-08 16:57:00,
2013-01-08 11:02:00,28.4,28.4,30.05,NE,51,0.0,0.0,100,0.00,CLR,OVC,0.00,7.2,WeatherDisplay:10.37,2013-01-08 17:02:00,
2013-01-08 11:07:00,28.9,28.9,30.05,SW,214,4.6,0.0,100,0.00,CLR,OVC,0.00,6.2,WeatherDisplay:10.37,2013-01-08 17:07:00,
2013-01-08 11:12:00,29.7,29.7,30.05,South,172,0.0,0.0,100,0.00,CLR,OVC,0.00,4.8,WeatherDisplay:10.37,2013-01-08 17:12:00,
2013-01-08 11:17:00,30.2,30.2,30.05,South,178,0.0,0.0,100,0.00,CLR,OVC,0.00,3.7,WeatherDisplay:10.37,2013-01-08 17:17:00,
2013-01-08 11:22:00,30.9,30.9,30.02,South,172,3.5,3.5,100,0.00,CLR,OVC,0.00,2.3,WeatherDisplay:10.37,2013-01-08 17:22:00,
2013-01-08 11:27:00,31.3,31.3,30.02,South,171,3.5,0.0,100,0.00,CLR,OVC,0.00,1.5,WeatherDisplay:10.37,2013-01-08 17:27:00,
2013-01-08 11:32:00,31.8,31.8,30.02,SW,214,5.8,5.8,100,0.00,CLR,OVC,0.00,0.4,WeatherDisplay:10.37,2013-01-08 17:32:00,
2013-01-08 11:37:00,32.0,32.0,30.02,South,179,5.8,5.8,100,0.00,CLR,OVC,0.00,0.0,WeatherDisplay:10.37,2013-01-08 17:37:00,
2013-01-08 11:42:00,32.4,32.4,30.02,SSW,202,3.5,3.5,100,0.00,CLR,OVC,0.00,0.0,WeatherDisplay:10.37,2013-01-08 17:42:00,
2013-01-08 11:47:00,32.7,32.5,30.02,SSE,165,4.6,4.6,99,0.00,CLR,OVC,0.00,0.0,WeatherDisplay:10.37,2013-01-08 17:47:00,
2013-01-08 11:52:00,33.1,32.6,30.02,South,169,3.5,3.5,98,0.00,CLR,OVC,0.00,0.0,WeatherDisplay:10.37,2013-01-08 17:52:00,
2013-01-08 11:57:00,33.4,32.7,30.02,SSW,192,3.5,3.6,97,0.00,CLR,OVC,0.00,0.0,WeatherDisplay:10.37,2013-01-08 17:57:00,
2013-01-08 12:02:00,33.8,32.5,30.02,SSW,201,3.5,0.0,95,0.00,CLR,OVC,0.00,0.0,WeatherDisplay:10.37,2013-01-08 18:02:00,
2013-01-08 12:07:00,34.2,32.6,30.02,SSW,202,3.5,0.0,94,0.00,CLR,OVC,0.00,0.0,WeatherDisplay:10.37,2013-01-08 18:07:00,
2013-01-08 12:12:00,34.3,32.3,30.02,SSW,202,0.0,0.0,92,0.00,CLR,OVC,0.00,0.0,WeatherDisplay:10.37,2013-01-08 18:12:00,
2013-01-08 12:17:00,34.7,32.3,30.02,SW,231,3.5,3.5,91,0.00,CLR,OVC,0.00,0.0,WeatherDisplay:10.37,2013-01-08 18:17:00,
2013-01-08 12:22:00,35.1,31.6,29.99,SSW,208,3.5,3.6,87,0.00,CLR,OVC,0.00,0.0,WeatherDisplay:10.37,2013-01-08 18:22:00,
2013-01-08 12:27:00,35.2,30.9,29.99,South,173,0.0,0.0,84,0.00,CLR,OVC,0.00,0.0,WeatherDisplay:10.37,2013-01-08 18:27:00,
2013-01-08 12:32:00,35.4,30.8,29.99,SSE,158,3.5,3.6,83,0.00,CLR,OVC,0.00,0.0,WeatherDisplay:10.37,2013-01-08 18:32:00,
2013-01-08 12:37:00,35.6,30.6,29.99,SSW,213,3.5,3.5,82,0.00,CLR,OVC,0.00,0.0,WeatherDisplay:10.37,2013-01-08 18:37:00,
2013-01-08 12:42:00,35.6,30.0,29.99,ENE,61,2.7,0.0,80,0.00,CLR,OVC,0.00,0.0,WeatherDisplay:10.37,2013-01-08 18:42:00,
2013-01-08 12:47:00,35.4,29.2,29.99,East,89,2.3,0.0,78,0.00,CLR,OVC,0.00,0.0,WeatherDisplay:10.37,2013-01-08 18:47:00,
2013-01-08 12:52:00,35.6,29.1,29.99,South,186,3.5,3.5,77,0.00,CLR,OVC,0.00,0.0,WeatherDisplay:10.37,2013-01-08 18:52:00,
2013-01-08 12:57:00,35.8,28.6,29.99,ESE,113,0.0,0.0,75,0.00,CLR,OVC,0.00,0.0,WeatherDisplay:10.37,2013-01-08 18:57:00,
2013-01-08 13:02:00,35.8,28.6,29.99,East,95,2.3,0.0,75,0.00,CLR,OVC,0.00,0.0,WeatherDisplay:10.37,2013-01-08 19:02:00,
2013-01-08 13:07:00,35.8,28.6,29.99,SSE,152,2.7,0.0,75,0.00,CLR,OVC,0.00,0.0,WeatherDisplay:10.37,2013-01-08 19:07:00,
2013-01-08 13:12:00,35.6,28.1,29.99,South,171,2.3,2.7,74,0.00,CLR,OVC,0.00,0.0,WeatherDisplay:10.37,2013-01-08 19:12:00,
2013-01-08 13:17:00,35.4,28.3,29.99,SSW,206,0.0,0.0,75,0.00,CLR,OVC,0.00,0.0,WeatherDisplay:10.37,2013-01-08 19:17:00,
2013-01-08 13:22:00,35.6,28.1,29.99,South,173,2.3,0.0,74,0.00,CLR,OVC,0.00,0.0,WeatherDisplay:10.37,2013-01-08 19:22:00,
2013-01-08 13:27:00,36.0,28.5,29.99,South,173,0.0,0.0,74,0.00,CLR,OVC,0.00,0.0,WeatherDisplay:10.37,2013-01-08 19:27:00,
2013-01-08 13:32:00,36.5,29.0,29.99,SSE,167,2.3,0.0,74,0.00,CLR,OVC,0.00,0.0,WeatherDisplay:10.37,2013-01-08 19:32:00,
2013-01-08 13:37:00,37.2,29.7,29.96,South,177,0.0,0.0,74,0.00,CLR,OVC,0.00,0.0,WeatherDisplay:10.37,2013-01-08 19:37:00,
2013-01-08 13:42:00,37.8,29.2,29.96,SSW,206,2.3,2.3,71,0.00,CLR,OVC,0.00,0.0,WeatherDisplay:10.37,2013-01-08 19:42:00,
2013-01-08 13:47:00,37.9,29.4,29.96,South,188,4.6,4.6,71,0.00,CLR,OVC,0.00,0.0,WeatherDisplay:10.37,2013-01-08 19:47:00,
2013-01-08 13:52:00,38.1,29.5,29.96,SSW,200,0.0,0.0,71,0.00,CLR,OVC,0.00,0.0,WeatherDisplay:10.37,2013-01-08 19:52:00,
2013-01-08 13:57:00,38.3,29.4,29.96,ESE,122,2.3,0.0,70,0.00,CLR,OVC,0.00,0.0,WeatherDisplay:10.37,2013-01-08 19:57:00,
2013-01-08 14:02:00,38.3,28.7,29.96,SW,231,6.9,6.9,68,0.00,CLR,OVC,0.00,0.0,WeatherDisplay:10.37,2013-01-08 20:02:00,
2013-01-08 14:07:00,38.5,29.2,29.96,SSE,149,3.5,3.5,69,0.00,CLR,OVC,0.00,0.0,WeatherDisplay:10.37,2013-01-08 20:07:00,
2013-01-08 14:12:00,38.8,29.2,29.96,South,175,5.8,5.8,68,0.00,CLR,OVC,0.00,0.0,WeatherDisplay:10.37,2013-01-08 20:12:00,
2013-01-08 14:17:00,38.8,29.2,29.96,West,264,4.6,4.6,68,0.00,CLR,OVC,0.00,0.0,WeatherDisplay:10.37,2013-01-08 20:17:00,
2013-01-08 14:22:00,38.8,29.2,29.96,SSE,166,3.5,3.5,68,0.00,CLR,OVC,0.00,0.0,WeatherDisplay:10.37,2013-01-08 20:22:00,
2013-01-08 14:27:00,39.0,29.3,29.96,SSE,149,5.8,0.0,68,0.00,CLR,OVC,0.00,0.0,WeatherDisplay:10.37,2013-01-08 20:27:00,
2013-01-08 14:32:00,39.2,29.2,29.96,South,171,5.8,5.8,67,0.00,CLR,OVC,0.00,0.0,WeatherDisplay:10.37,2013-01-08 20:32:00,
2013-01-08 14:37:00,39.0,29.0,29.96,SSW,207,3.5,3.5,67,0.00,CLR,OVC,0.00,0.0,WeatherDisplay:10.37,2013-01-08 20:37:00,
2013-01-08 14:42:00,38.7,28.6,29.96,SSE,165,4.6,4.6,67,0.00,CLR,OVC,0.00,0.0,WeatherDisplay:10.37,2013-01-08 20:42:00,
2013-01-08 14:47:00,38.3,28.3,29.96,SE,132,3.5,0.0,67,0.00,CLR,OVC,0.00,0.0,WeatherDisplay:10.37,2013-01-08 20:47:00,
2013-01-08 14:52:00,37.9,28.0,29.96,South,176,0.0,0.0,67,0.00,CLR,OVC,0.00,0.0,WeatherDisplay:10.37,2013-01-08 20:52:00,
2013-01-08 14:57:00,37.4,27.4,29.96,South,188,0.0,0.0,67,0.00,CLR,OVC,0.00,0.0,WeatherDisplay:10.37,2013-01-08 20:57:00,
2013-01-08 15:02:00,37.2,27.6,29.96,East,94,2.3,2.3,68,0.00,CLR,OVC,0.00,0.0,WeatherDisplay:10.37,2013-01-08 21:02:00,
2013-01-08 15:07:00,37.0,27.5,29.96,East,96,3.5,0.0,68,0.00,CLR,OVC,0.00,0.0,WeatherDisplay:10.37,2013-01-08 21:07:00,
2013-01-08 15:12:00,36.9,27.3,29.96,SW,217,0.0,0.0,68,0.00,CLR,OVC,0.00,0.0,WeatherDisplay:10.37,2013-01-08 21:12:00,
2013-01-08 15:17:00,36.7,27.1,29.96,SSE,149,2.3,0.0,68,0.00,CLR,OVC,0.00,0.0,WeatherDisplay:10.37,2013-01-08 21:17:00,
2013-01-08 15:22:00,36.7,27.1,29.93,SE,144,2.3,2.3,68,0.00,CLR,OVC,0.00,0.0,WeatherDisplay:10.37,2013-01-08 21:22:00,
2013-01-08 15:27:00,36.3,27.1,29.93,ESE,108,3.5,3.5,69,0.00,CLR,OVC,0.00,0.0,WeatherDisplay:10.37,2013-01-08 21:27:00,
2013-01-08 15:32:00,36.1,26.9,29.93,East,98,3.5,0.0,69,0.00,CLR,OVC,0.00,0.0,WeatherDisplay:10.37,2013-01-08 21:32:00,
2013-01-08 15:37:00,36.0,26.8,29.93,SSE,156,0.0,0.0,69,0.00,CLR,OVC,0.00,0.0,WeatherDisplay:10.37,2013-01-08 21:37:00,
2013-01-08 15:42:00,35.6,26.8,29.93,NE,52,3.5,0.0,70,0.00,CLR,OVC,0.00,0.0,WeatherDisplay:10.37,2013-01-08 21:42:00,
2013-01-08 15:47:00,35.6,26.8,29.93,SSW,206,3.5,0.0,70,0.00,CLR,OVC,0.00,0.0,WeatherDisplay:10.37,2013-01-08 21:47:00,
2013-01-08 15:52:00,35.4,26.9,29.93,South,183,3.5,3.5,71,0.00,CLR,OVC,0.00,0.0,WeatherDisplay:10.37,2013-01-08 21:52:00,
2013-01-08 15:57:00,35.2,26.8,29.93,South,190,0.0,0.0,71,0.00,CLR,OVC,0.00,0.0,WeatherDisplay:10.37,2013-01-08 21:57:00,
2013-01-08 16:02:00,35.1,26.6,29.93,SSE,166,3.5,3.5,71,0.00,CLR,OVC,0.00,0.0,WeatherDisplay:10.37,2013-01-08 22:02:00,
2013-01-08 16:06:00,34.9,26.8,29.93,South,183,2.3,0.0,72,0.00,CLR,OVC,0.00,0.0,WeatherDisplay:10.37,2013-01-08 22:06:00,
2013-01-08 16:11:00,34.7,26.6,29.93,SSE,165,4.6,4.6,72,0.00,CLR,OVC,0.00,0.0,WeatherDisplay:10.37,2013-01-08 22:11:00,
2013-01-08 16:16:00,34.7,26.6,29.93,SW,228,0.0,0.0,72,0.00,CLR,OVC,0.00,0.0,WeatherDisplay:10.37,2013-01-08 22:16:00,
2013-01-08 16:21:00,34.3,26.6,29.93,South,169,0.0,0.0,73,0.00,CLR,OVC,0.00,0.0,WeatherDisplay:10.37,2013-01-08 22:21:00,
2013-01-08 16:26:00,34.2,26.4,29.93,SE,129,0.0,0.0,73,0.00,CLR,OVC,0.00,0.0,WeatherDisplay:10.37,2013-01-08 22:26:00,
2013-01-08 16:31:00,33.8,26.1,29.93,SSW,209,0.0,0.0,73,0.00,CLR,OVC,0.00,0.0,WeatherDisplay:10.37,2013-01-08 22:31:00,
2013-01-08 16:36:00,33.8,26.1,29.93,SE,144,0.0,0.0,73,0.00,CLR,OVC,0.00,0.0,WeatherDisplay:10.37,2013-01-08 22:36:00,
2013-01-08 16:41:00,33.4,26.0,29.93,NNW,329,0.0,0.0,74,0.00,CLR,OVC,0.00,0.0,WeatherDisplay:10.37,2013-01-08 22:41:00,
2013-01-08 16:46:00,33.3,26.2,29.93,WSW,237,0.0,0.0,75,0.00,CLR,OVC,0.00,0.0,WeatherDisplay:10.37,2013-01-08 22:46:00,
2013-01-08 16:51:00,32.9,25.8,29.93,East,84,3.5,3.5,75,0.00,CLR,OVC,0.00,0.0,WeatherDisplay:10.37,2013-01-08 22:51:00,
2013-01-08 16:56:00,32.7,26.0,29.93,South,183,3.5,0.0,76,0.00,CLR,OVC,0.00,0.0,WeatherDisplay:10.37,2013-01-08 22:56:00,
2013-01-08 17:01:00,32.7,26.0,29.93,ESE,106,0.0,0.0,76,0.00,CLR,OVC,0.00,0.0,WeatherDisplay:10.37,2013-01-08 23:01:00,
2013-01-08 17:06:00,32.5,25.8,29.90,South,182,0.0,2.2,76,0.00,CLR,OVC,0.00,0.0,WeatherDisplay:10.37,2013-01-08 23:06:00,
2013-01-08 17:11:00,32.2,25.5,29.90,East,96,3.5,3.5,76,0.00,CLR,OVC,0.00,0.0,WeatherDisplay:10.37,2013-01-08 23:11:00,
2013-01-08 17:16:00,32.2,25.8,29.90,ESE,105,4.6,0.0,77,0.00,CLR,OVC,0.00,0.0,WeatherDisplay:10.37,2013-01-08 23:16:00,
2013-01-08 17:21:00,32.0,25.6,29.90,SE,135,5.8,0.0,77,0.00,CLR,OVC,0.00,0.0,WeatherDisplay:10.37,2013-01-08 23:21:00,
2013-01-08 17:26:00,32.0,25.9,29.90,SW,214,4.6,4.6,78,0.00,CLR,OVC,0.00,0.0,WeatherDisplay:10.37,2013-01-08 23:26:00,
2013-01-08 17:31:00,32.0,25.9,29.90,ESE,106,2.3,2.7,78,0.00,CLR,OVC,0.00,0.0,WeatherDisplay:10.37,2013-01-08 23:31:00,
2013-01-08 17:36:00,31.8,25.7,29.90,SE,125,3.5,0.0,78,0.00,CLR,OVC,0.00,0.0,WeatherDisplay:10.37,2013-01-08 23:36:00,
2013-01-08 17:41:00,31.8,25.7,29.90,ESE,103,5.8,5.8,78,0.00,CLR,OVC,0.00,0.0,WeatherDisplay:10.37,2013-01-08 23:41:00,
2013-01-08 17:46:00,31.8,26.0,29.90,South,183,3.5,3.5,79,0.00,CLR,OVC,0.00,0.0,WeatherDisplay:10.37,2013-01-08 23:46:00,
2013-01-08 17:51:00,31.8,26.0,29.90,SSE,163,3.5,3.6,79,0.00,CLR,OVC,0.00,0.0,WeatherDisplay:10.37,2013-01-08 23:51:00,
2013-01-08 17:56:00,31.8,26.0,29.90,South,175,3.5,3.5,79,0.00,CLR,OVC,0.00,0.0,WeatherDisplay:10.37,2013-01-08 23:56:00,
2013-01-08 18:01:00,31.8,26.4,29.90,SSE,163,4.6,4.6,80,0.00,CLR,OVC,0.00,0.0,WeatherDisplay:10.37,2013-01-09 00:01:00,
2013-01-08 18:06:00,32.0,26.5,29.90,SW,234,8.1,8.1,80,0.00,BKN,OVC,0.00,0.0,WeatherDisplay:10.37,2013-01-09 00:06:00,
2013-01-08 18:11:00,32.2,27.0,29.90,South,172,3.5,3.5,81,0.00,BKN,OVC,0.00,0.0,WeatherDisplay:10.37,2013-01-09 00:11:00,
2013-01-08 18:16:00,32.2,27.0,29.90,SSW,203,3.5,4.5,81,0.00,BKN,OVC,0.00,0.0,WeatherDisplay:10.37,2013-01-09 00:16:00,
2013-01-08 18:21:00,32.5,27.4,29.90,South,190,5.8,5.8,81,0.00,BKN,OVC,0.00,0.0,WeatherDisplay:10.37,2013-01-09 00:21:00,
2013-01-08 18:26:00,32.5,27.7,29.90,SSW,203,8.1,8.1,82,0.00,BKN,OVC,0.00,0.0,WeatherDisplay:10.37,2013-01-09 00:26:00,
2013-01-08 18:31:00,32.7,27.8,29.90,SSW,197,8.1,8.1,82,0.00,BKN,OVC,0.00,0.0,WeatherDisplay:10.37,2013-01-09 00:31:00,
2013-01-08 18:36:00,32.7,27.8,29.90,SW,223,5.8,5.8,82,0.00,BKN,OVC,0.00,0.0,WeatherDisplay:10.37,2013-01-09 00:36:00,
2013-01-08 18:41:00,32.7,27.8,29.90,SSW,207,5.8,5.8,82,0.00,BKN,OVC,0.00,0.0,WeatherDisplay:10.37,2013-01-09 00:41:00,
2013-01-08 18:46:00,32.9,28.0,29.90,South,190,5.8,5.8,82,0.00,BKN,OVC,0.00,0.0,WeatherDisplay:10.37,2013-01-09 00:46:00,
2013-01-08 18:51:00,32.9,28.3,29.90,SW,228,9.2,9.2,83,0.00,BKN,OVC,0.00,0.0,WeatherDisplay:10.37,2013-01-09 00:51:00,
2013-01-08 18:56:00,33.1,28.5,29.90,SSW,201,5.8,5.8,83,0.00,BKN,OVC,0.00,0.0,WeatherDisplay:10.37,2013-01-09 00:56:00,
2013-01-08 19:01:00,33.1,28.8,29.90,SSW,213,9.2,9.2,84,0.00,OVC,,0.00,0.0,WeatherDisplay:10.37,2013-01-09 01:01:00,
2013-01-08 19:06:00,33.1,28.8,29.90,SW,214,8.1,8.1,84,0.00,OVC,,0.00,0.0,WeatherDisplay:10.37,2013-01-09 01:06:00,
2013-01-08 19:11:00,33.3,29.2,29.90,SSW,211,12.7,12.7,85,0.00,OVC,,0.00,0.0,WeatherDisplay:10.37,2013-01-09 01:11:00,
2013-01-08 19:16:00,33.3,29.2,29.90,SW,227,11.5,11.5,85,0.00,OVC,,0.00,0.0,WeatherDisplay:10.37,2013-01-09 01:16:00,
2013-01-08 19:21:00,33.3,29.5,29.90,SW,219,9.2,9.2,86,0.00,OVC,,0.00,0.0,WeatherDisplay:10.37,2013-01-09 01:21:00,
2013-01-08 19:26:00,33.1,29.1,29.90,SW,222,8.1,8.1,85,0.00,OVC,,0.00,0.0,WeatherDisplay:10.37,2013-01-09 01:26:00,
2013-01-08 19:31:00,32.9,28.9,29.90,SW,227,5.8,5.8,85,0.00,OVC,,0.00,0.0,WeatherDisplay:10.37,2013-01-09 01:31:00,
2013-01-08 19:36:00,32.7,28.7,29.90,SSW,195,5.8,5.8,85,0.00,OVC,,0.00,0.0,WeatherDisplay:10.37,2013-01-09 01:36:00,
2013-01-08 19:41:00,32.4,28.4,29.90,SSW,203,8.1,8.1,85,0.00,OVC,,0.00,0.0,WeatherDisplay:10.37,2013-01-09 01:41:00,
2013-01-08 19:46:00,32.2,28.2,29.90,SSW,208,8.1,8.1,85,0.00,OVC,,0.00,0.0,WeatherDisplay:10.37,2013-01-09 01:46:00,
2013-01-08 19:51:00,32.2,28.5,29.90,SSE,168,8.1,8.1,86,0.00,OVC,,0.00,0.0,WeatherDisplay:10.37,2013-01-09 01:51:00,
2013-01-08 19:56:00,32.2,28.5,29.90,SSW,200,3.5,3.5,86,0.00,OVC,,0.00,0.0,WeatherDisplay:10.37,2013-01-09 01:56:00,
2013-01-08 20:01:00,32.2,28.7,29.90,South,173,8.1,8.1,87,0.00,BKN,OVC,0.00,0.0,WeatherDisplay:10.37,2013-01-09 02:01:00,
2013-01-08 20:06:00,32.2,28.7,29.87,SSW,199,8.1,8.1,87,0.00,BKN,OVC,0.00,0.0,WeatherDisplay:10.37,2013-01-09 02:06:00,
2013-01-08 20:11:00,32.2,28.7,29.87,South,186,4.6,4.6,87,0.00,BKN,OVC,0.00,0.0,WeatherDisplay:10.37,2013-01-09 02:11:00,
2013-01-08 20:16:00,32.2,29.0,29.87,South,188,5.8,5.8,88,0.00,BKN,OVC,0.00,0.0,WeatherDisplay:10.37,2013-01-09 02:16:00,
2013-01-08 20:21:00,32.2,29.0,29.87,SSW,208,6.9,6.9,88,0.00,BKN,OVC,0.00,0.0,WeatherDisplay:10.37,2013-01-09 02:21:00,
2013-01-08 20:26:00,32.2,29.0,29.87,SW,215,5.8,5.8,88,0.00,BKN,OVC,0.00,0.0,WeatherDisplay:10.37,2013-01-09 02:26:00,
2013-01-08 20:31:00,32.2,29.3,29.87,South,185,5.8,5.8,89,0.00,BKN,OVC,0.00,0.0,WeatherDisplay:10.37,2013-01-09 02:31:00,
2013-01-08 20:36:00,32.2,29.3,29.87,SSW,212,9.2,9.2,89,0.00,BKN,OVC,0.00,0.0,WeatherDisplay:10.37,2013-01-09 02:36:00,
2013-01-08 20:41:00,32.4,29.8,29.87,SW,227,7.2,7.2,90,0.00,BKN,OVC,0.00,0.0,WeatherDisplay:10.37,2013-01-09 02:41:00,
2013-01-08 20:46:00,32.5,29.9,29.87,South,177,5.8,5.8,90,0.00,BKN,OVC,0.00,0.0,WeatherDisplay:10.37,2013-01-09 02:46:00,
2013-01-08 20:51:00,32.7,30.4,29.87,SW,218,8.1,8.1,91,0.00,BKN,OVC,0.00,0.0,WeatherDisplay:10.37,2013-01-09 02:51:00,
2013-01-08 20:56:00,33.1,30.7,29.87,SW,227,8.1,8.1,91,0.00,BKN,OVC,0.00,0.0,WeatherDisplay:10.37,2013-01-09 02:56:00,
2013-01-08 21:01:00,33.3,30.9,29.87,SSW,197,10.4,10.4,91,0.00,BKN,OVC,0.00,0.0,WeatherDisplay:10.37,2013-01-09 03:01:00,
2013-01-08 21:06:00,33.4,31.4,29.87,South,182,5.8,6.3,92,0.00,BKN,OVC,0.00,0.0,WeatherDisplay:10.37,2013-01-09 03:06:00,
2013-01-08 21:11:00,33.6,31.5,29.87,SSW,210,8.1,8.1,92,0.00,BKN,OVC,0.00,0.0,WeatherDisplay:10.37,2013-01-09 03:11:00,
2013-01-08 21:16:00,33.6,31.5,29.87,South,174,11.5,11.5,92,0.00,OVC,,0.00,0.0,WeatherDisplay:10.37,2013-01-09 03:16:00,
2013-01-08 21:21:00,34.0,31.6,29.87,South,182,9.2,9.2,91,0.00,OVC,,0.00,0.0,WeatherDisplay:10.37,2013-01-09 03:21:00,
2013-01-08 21:26:00,34.2,31.5,29.87,SSW,194,10.4,10.4,90,0.00,OVC,,0.00,0.0,WeatherDisplay:10.37,2013-01-09 03:26:00,
2013-01-08 21:31:00,34.2,31.5,29.87,SW,220,9.2,9.2,90,0.00,OVC,,0.00,0.0,WeatherDisplay:10.37,2013-01-09 03:31:00,
2013-01-08 21:36:00,34.2,31.3,29.87,SSW,199,9.2,9.2,89,0.00,OVC,,0.00,0.0,WeatherDisplay:10.37,2013-01-09 03:36:00,
2013-01-08 21:41:00,34.2,31.3,29.87,SW,231,10.4,10.4,89,0.00,OVC,,0.00,0.0,WeatherDisplay:10.37,2013-01-09 03:41:00,
2013-01-08 21:46:00,34.3,31.4,29.87,SSW,211,9.2,9.2,89,0.00,OVC,,0.00,0.0,WeatherDisplay:10.37,2013-01-09 03:46:00,
2013-01-08 21:51:00,34.3,31.4,29.87,SSW,194,9.2,9.2,89,0.00,OVC,,0.00,0.0,WeatherDisplay:10.37,2013-01-09 03:51:00,
2013-01-08 21:56:00,34.5,31.6,29.87,SW,218,8.1,8.1,89,0.00,OVC,,0.00,0.0,WeatherDisplay:10.37,2013-01-09 03:56:00,
2013-01-08 22:01:00,34.7,31.8,29.87,South,172,8.1,8.1,89,0.00,OVC,,0.00,0.0,WeatherDisplay:10.37,2013-01-09 04:01:00,
2013-01-08 22:06:00,34.7,31.5,29.87,SSW,203,10.4,10.4,88,0.00,OVC,,0.00,0.0,WeatherDisplay:10.37,2013-01-09 04:06:00,
2013-01-08 22:11:00,34.7,31.5,29.87,SSW,197,8.1,8.1,88,0.00,OVC,,0.00,0.0,WeatherDisplay:10.37,2013-01-09 04:11:00,
2013-01-08 22:16:00,34.9,31.7,29.87,SSW,198,5.8,5.8,88,0.00,BKN,OVC,0.00,0.0,WeatherDisplay:10.37,2013-01-09 04:16:00,
2013-01-08 22:21:00,34.9,31.7,29.87,SSW,207,10.4,10.4,88,0.00,BKN,OVC,0.00,0.0,WeatherDisplay:10.37,2013-01-09 04:21:00,
2013-01-08 22:26:00,34.9,31.7,29.87,SSW,199,9.2,9.2,88,0.00,BKN,OVC,0.00,0.0,WeatherDisplay:10.37,2013-01-09 04:26:00,
2013-01-08 22:31:00,35.1,31.9,29.87,South,170,8.1,8.1,88,0.00,BKN,OVC,0.00,0.0,WeatherDisplay:10.37,2013-01-09 04:31:00,
2013-01-08 22:36:00,35.2,31.8,29.87,SSW,205,8.1,8.1,87,0.00,BKN,OVC,0.00,0.0,WeatherDisplay:10.37,2013-01-09 04:36:00,
2013-01-08 22:41:00,35.4,31.9,29.87,SW,218,8.1,8.1,87,0.00,BKN,OVC,0.00,0.0,WeatherDisplay:10.37,2013-01-09 04:41:00,
2013-01-08 22:46:00,35.4,31.9,29.87,SSW,206,9.2,9.2,87,0.00,BKN,OVC,0.00,0.0,WeatherDisplay:10.37,2013-01-09 04:46:00,
2013-01-08 22:51:00,35.6,31.8,29.84,SW,215,9.2,9.2,86,0.00,BKN,OVC,0.00,0.0,WeatherDisplay:10.37,2013-01-09 04:51:00,
2013-01-08 22:56:00,35.6,31.8,29.84,SSW,207,9.2,9.2,86,0.00,BKN,OVC,0.00,0.0,WeatherDisplay:10.37,2013-01-09 04:56:00,
2013-01-08 23:00:00,35.8,31.7,29.84,South,189,8.1,8.1,85,0.00,BKN,OVC,0.00,0.0,WeatherDisplay:10.37,2013-01-09 05:00:00,
2013-01-08 23:03:00,35.8,31.7,29.84,South,182,9.2,9.2,85,0.00,OVC,,0.00,0.0,WeatherDisplay:10.37,2013-01-09 05:03:00,
2013-01-08 23:08:00,36.0,31.9,29.84,SSW,192,10.4,10.4,85,0.00,OVC,,0.00,0.0,WeatherDisplay:10.37,2013-01-09 05:08:00,
2013-01-08 23:13:00,36.0,31.6,29.84,SW,222,9.2,9.2,84,0.00,OVC,,0.00,0.0,WeatherDisplay:10.37,2013-01-09 05:13:00,
2013-01-08 23:18:00,36.1,31.8,29.84,SW,227,9.2,9.2,84,0.00,OVC,,0.00,0.0,WeatherDisplay:10.37,2013-01-09 05:18:00,
2013-01-08 23:23:00,36.1,31.8,29.84,SSE,159,10.4,10.4,84,0.00,OVC,,0.00,0.0,WeatherDisplay:10.37,2013-01-09 05:23:00,
2013-01-08 23:28:00,36.0,31.3,29.84,SSW,206,5.8,6.3,83,0.00,OVC,,0.00,0.0,WeatherDisplay:10.37,2013-01-09 05:28:00,
2013-01-08 23:33:00,36.0,31.3,29.84,SSW,194,9.2,9.2,83,0.00,OVC,,0.00,0.0,WeatherDisplay:10.37,2013-01-09 05:33:00,
2013-01-08 23:38:00,36.1,31.5,29.84,SSW,202,8.1,8.1,83,0.00,OVC,,0.00,0.0,WeatherDisplay:10.37,2013-01-09 05:38:00,
2013-01-08 23:43:00,36.1,31.5,29.84,SW,225,8.1,8.1,83,0.00,OVC,,0.00,0.0,WeatherDisplay:10.37,2013-01-09 05:43:00,
2013-01-08 23:48:00,36.1,31.5,29.84,SSW,202,5.8,5.8,83,0.00,OVC,,0.00,0.0,WeatherDisplay:10.37,2013-01-09 05:48:00,
2013-01-08 23:53:00,36.1,31.5,29.84,SSW,192,10.4,10.4,83,0.00,OVC,,0.00,0.0,WeatherDisplay:10.37,2013-01-09 05:53:00,
2013-01-08 23:58:00,36.1,31.5,29.84,WSW,251,8.1,8.1,83,0.00,OVC,,0.00,0.0,WeatherDisplay:10.37,2013-01-09 05:58:00,